sensor_id;sensor_type;location;lat;lon;timestamp;temperature;humidity
9537;DHT22;4807;48.024;11.726;2024-03-23T00:55:12;8.40;99.90
9537;DHT22;4807;48.024;11.726;2024-03-23T00:58:19;8.20;99.90
9537;DHT22;4807;48.024;11.726;2024-03-23T01:01:27;8.10;99.90
9537;DHT22;4807;48.024;11.726;2024-03-23T01:04:33;8.10;99.90
9537;DHT22;4807;48.024;11.726;2024-03-23T01:07:42;8.10;99.90
9537;DHT22;4807;48.024;11.726;2024-03-23T01:10:54;8.10;99.90
9537;DHT22;4807;48.024;11.726;2024-03-23T01:14:02;8.10;99.90
9537;DHT22;4807;48.024;11.726;2024-03-23T01:17:08;8.10;99.90
9537;DHT22;4807;48.024;11.726;2024-03-23T01:20:16;8.00;99.90
9537;DHT22;4807;48.024;11.726;2024-03-23T01:23:23;8.00;99.90
9537;DHT22;4807;48.024;11.726;2024-03-23T01:26:31;8.00;99.90
9537;DHT22;4807;48.024;11.726;2024-03-23T01:29:37;8.00;99.90
9537;DHT22;4807;48.024;11.726;2024-03-23T01:32:45;7.80;99.90
9537;DHT22;4807;48.024;11.726;2024-03-23T01:35:52;7.90;99.90
9537;DHT22;4807;48.024;11.726;2024-03-23T01:39:00;7.90;99.90
9537;DHT22;4807;48.024;11.726;2024-03-23T01:42:07;7.70;99.90
9537;DHT22;4807;48.024;11.726;2024-03-23T01:45:13;7.50;99.90
9537;DHT22;4807;48.024;11.726;2024-03-23T01:48:21;7.50;99.90
9537;DHT22;4807;48.024;11.726;2024-03-23T01:51:29;7.20;99.90
9537;DHT22;4807;48.024;11.726;2024-03-23T01:54:38;7.10;99.90
9537;DHT22;4807;48.024;11.726;2024-03-23T01:57:45;7.00;99.90
9537;DHT22;4807;48.024;11.726;2024-03-23T02:00:53;6.90;99.90
9537;DHT22;4807;48.024;11.726;2024-03-23T02:03:59;6.90;99.90
9537;DHT22;4807;48.024;11.726;2024-03-23T02:07:06;7.10;99.90
9537;DHT22;4807;48.024;11.726;2024-03-23T02:10:16;7.20;99.90
9537;DHT22;4807;48.024;11.726;2024-03-23T02:13:22;7.00;99.90
9537;DHT22;4807;48.024;11.726;2024-03-23T02:16:30;7.10;99.90
9537;DHT22;4807;48.024;11.726;2024-03-23T02:19:38;7.10;99.90
9537;DHT22;4807;48.024;11.726;2024-03-23T02:22:44;7.10;99.90
9537;DHT22;4807;48.024;11.726;2024-03-23T02:25:53;7.10;99.90
9537;DHT22;4807;48.024;11.726;2024-03-23T02:28:59;7.10;99.90
9537;DHT22;4807;48.024;11.726;2024-03-23T02:32:06;7.00;99.90
9537;DHT22;4807;48.024;11.726;2024-03-23T02:35:15;6.80;99.90
9537;DHT22;4807;48.024;11.726;2024-03-23T02:38:22;7.40;99.90
9537;DHT22;4807;48.024;11.726;2024-03-23T02:41:31;7.00;99.90
9537;DHT22;4807;48.024;11.726;2024-03-23T02:44:37;7.10;99.90
9537;DHT22;4807;48.024;11.726;2024-03-23T02:47:45;7.20;99.90
9537;DHT22;4807;48.024;11.726;2024-03-23T02:50:52;7.70;99.90
9537;DHT22;4807;48.024;11.726;2024-03-23T02:54:00;7.60;99.90
9537;DHT22;4807;48.024;11.726;2024-03-23T02:57:09;7.70;99.90
9537;DHT22;4807;48.024;11.726;2024-03-23T03:00:15;7.70;99.90
9537;DHT22;4807;48.024;11.726;2024-03-23T03:03:41;7.80;99.90
9537;DHT22;4807;48.024;11.726;2024-03-23T03:07:14;8.00;99.90
9537;DHT22;4807;48.024;11.726;2024-03-23T03:10:22;7.90;99.90
9537;DHT22;4807;48.024;11.726;2024-03-23T03:13:29;7.80;99.90
9537;DHT22;4807;48.024;11.726;2024-03-23T03:16:37;7.70;99.90
9537;DHT22;4807;48.024;11.726;2024-03-23T03:19:45;7.70;99.90
9537;DHT22;4807;48.024;11.726;2024-03-23T03:22:51;7.80;99.90
9537;DHT22;4807;48.024;11.726;2024-03-23T03:25:59;7.90;99.90
9537;DHT22;4807;48.024;11.726;2024-03-23T03:29:07;7.90;99.90
9537;DHT22;4807;48.024;11.726;2024-03-23T03:32:14;7.80;99.90
9537;DHT22;4807;48.024;11.726;2024-03-23T03:35:21;7.70;99.90
9537;DHT22;4807;48.024;11.726;2024-03-23T03:38:28;7.80;99.90
9537;DHT22;4807;48.024;11.726;2024-03-23T03:41:35;7.70;99.90
9537;DHT22;4807;48.024;11.726;2024-03-23T03:44:44;7.70;99.90
9537;DHT22;4807;48.024;11.726;2024-03-23T03:47:51;7.70;99.90
9537;DHT22;4807;48.024;11.726;2024-03-23T03:50:58;7.70;99.90
9537;DHT22;4807;48.024;11.726;2024-03-23T03:54:05;7.70;99.90
9537;DHT22;4807;48.024;11.726;2024-03-23T03:57:12;7.70;99.90
9537;DHT22;4807;48.024;11.726;2024-03-23T04:00:21;7.70;99.90
9537;DHT22;4807;48.024;11.726;2024-03-23T04:03:27;7.60;99.90
9537;DHT22;4807;48.024;11.726;2024-03-23T04:06:34;7.60;99.90
9537;DHT22;4807;48.024;11.726;2024-03-23T04:09:42;7.70;99.90
9537;DHT22;4807;48.024;11.726;2024-03-23T04:12:49;7.60;99.90
9537;DHT22;4807;48.024;11.726;2024-03-23T04:15:58;7.60;99.90
9537;DHT22;4807;48.024;11.726;2024-03-23T04:19:05;7.70;99.90
9537;DHT22;4807;48.024;11.726;2024-03-23T04:22:13;7.70;99.90
9537;DHT22;4807;48.024;11.726;2024-03-23T04:25:20;7.70;99.90
9537;DHT22;4807;48.024;11.726;2024-03-23T04:28:26;7.70;99.90
9537;DHT22;4807;48.024;11.726;2024-03-23T04:31:36;7.70;99.90
9537;DHT22;4807;48.024;11.726;2024-03-23T04:34:43;7.80;99.90
9537;DHT22;4807;48.024;11.726;2024-03-23T04:37:51;7.80;99.90
9537;DHT22;4807;48.024;11.726;2024-03-23T04:40:59;7.80;99.90
9537;DHT22;4807;48.024;11.726;2024-03-23T04:44:07;7.80;99.90
9537;DHT22;4807;48.024;11.726;2024-03-23T04:47:16;7.70;99.90
9537;DHT22;4807;48.024;11.726;2024-03-23T04:50:24;7.70;99.90
9537;DHT22;4807;48.024;11.726;2024-03-23T04:53:31;7.60;99.90
9537;DHT22;4807;48.024;11.726;2024-03-23T04:56:39;7.60;99.90
9537;DHT22;4807;48.024;11.726;2024-03-23T04:59:46;7.60;99.90
9537;DHT22;4807;48.024;11.726;2024-03-23T05:02:54;7.50;99.90
9537;DHT22;4807;48.024;11.726;2024-03-23T05:06:01;7.50;99.90
9537;DHT22;4807;48.024;11.726;2024-03-23T05:09:08;7.40;99.90
9537;DHT22;4807;48.024;11.726;2024-03-23T05:12:17;7.20;99.90
9537;DHT22;4807;48.024;11.726;2024-03-23T05:15:23;7.20;99.90
9537;DHT22;4807;48.024;11.726;2024-03-23T05:18:32;7.20;99.90
9537;DHT22;4807;48.024;11.726;2024-03-23T05:21:38;7.20;99.90
9537;DHT22;4807;48.024;11.726;2024-03-23T05:24:46;7.20;99.90
9537;DHT22;4807;48.024;11.726;2024-03-23T05:27:53;7.30;99.90
9537;DHT22;4807;48.024;11.726;2024-03-23T05:31:00;7.40;99.90
9537;DHT22;4807;48.024;11.726;2024-03-23T05:34:08;7.30;99.90
9537;DHT22;4807;48.024;11.726;2024-03-23T05:37:15;7.40;99.90
9537;DHT22;4807;48.024;11.726;2024-03-23T05:40:22;7.50;99.90
9537;DHT22;4807;48.024;11.726;2024-03-23T05:43:29;7.70;99.40
9537;DHT22;4807;48.024;11.726;2024-03-23T05:46:35;7.80;98.90
9537;DHT22;4807;48.024;11.726;2024-03-23T05:49:46;8.00;98.80
9537;DHT22;4807;48.024;11.726;2024-03-23T05:52:52;8.00;98.30
9537;DHT22;4807;48.024;11.726;2024-03-23T05:56:03;8.20;97.90
9537;DHT22;4807;48.024;11.726;2024-03-23T05:59:11;8.60;97.00
9537;DHT22;4807;48.024;11.726;2024-03-23T06:02:18;8.90;96.40
9537;DHT22;4807;48.024;11.726;2024-03-23T06:05:27;9.00;96.10
9537;DHT22;4807;48.024;11.726;2024-03-23T06:08:33;9.10;96.60
9537;DHT22;4807;48.024;11.726;2024-03-23T06:11:41;9.10;96.40
9537;DHT22;4807;48.024;11.726;2024-03-23T06:14:49;9.30;96.10
9537;DHT22;4807;48.024;11.726;2024-03-23T06:17:55;9.60;95.70
9537;DHT22;4807;48.024;11.726;2024-03-23T06:21:04;10.00;94.10
9537;DHT22;4807;48.024;11.726;2024-03-23T06:24:11;10.50;93.90
9537;DHT22;4807;48.024;11.726;2024-03-23T06:27:18;10.90;92.60
9537;DHT22;4807;48.024;11.726;2024-03-23T06:30:26;11.30;92.10
9537;DHT22;4807;48.024;11.726;2024-03-23T06:33:32;11.70;91.60
9537;DHT22;4807;48.024;11.726;2024-03-23T06:36:41;11.90;90.90
9537;DHT22;4807;48.024;11.726;2024-03-23T06:39:48;12.10;90.50
9537;DHT22;4807;48.024;11.726;2024-03-23T06:42:55;12.40;89.30
9537;DHT22;4807;48.024;11.726;2024-03-23T06:46:03;12.80;87.80
9537;DHT22;4807;48.024;11.726;2024-03-23T19:36:47;2.70;99.90
9537;DHT22;4807;48.024;11.726;2024-03-23T19:39:53;2.70;99.90
9537;DHT22;4807;48.024;11.726;2024-03-23T19:43:02;2.80;99.90
9537;DHT22;4807;48.024;11.726;2024-03-23T19:46:10;2.80;99.90
9537;DHT22;4807;48.024;11.726;2024-03-23T19:49:18;2.70;99.90
9537;DHT22;4807;48.024;11.726;2024-03-23T19:52:25;2.70;99.90
9537;DHT22;4807;48.024;11.726;2024-03-23T19:55:32;2.70;99.90
9537;DHT22;4807;48.024;11.726;2024-03-23T19:58:39;2.60;99.90
9537;DHT22;4807;48.024;11.726;2024-03-23T20:01:47;2.80;99.90
9537;DHT22;4807;48.024;11.726;2024-03-23T20:04:54;2.70;99.90
9537;DHT22;4807;48.024;11.726;2024-03-23T20:08:01;2.70;99.90
9537;DHT22;4807;48.024;11.726;2024-03-23T20:11:09;2.80;99.90
9537;DHT22;4807;48.024;11.726;2024-03-23T20:14:15;2.80;99.90
9537;DHT22;4807;48.024;11.726;2024-03-23T20:17:24;2.60;99.90
9537;DHT22;4807;48.024;11.726;2024-03-23T20:20:33;2.50;99.90
9537;DHT22;4807;48.024;11.726;2024-03-23T20:23:41;2.80;99.90
9537;DHT22;4807;48.024;11.726;2024-03-23T20:26:49;2.80;99.90
9537;DHT22;4807;48.024;11.726;2024-03-23T20:29:56;2.80;99.90
9537;DHT22;4807;48.024;11.726;2024-03-23T20:33:04;2.80;99.90
9537;DHT22;4807;48.024;11.726;2024-03-23T20:36:11;2.90;99.90
9537;DHT22;4807;48.024;11.726;2024-03-23T20:39:18;3.10;99.90
9537;DHT22;4807;48.024;11.726;2024-03-23T20:42:25;3.20;99.90
9537;DHT22;4807;48.024;11.726;2024-03-23T20:45:32;3.20;99.90
9537;DHT22;4807;48.024;11.726;2024-03-23T20:48:41;3.20;99.90
9537;DHT22;4807;48.024;11.726;2024-03-23T20:51:47;3.10;99.90
9537;DHT22;4807;48.024;11.726;2024-03-23T20:54:55;3.20;99.90
9537;DHT22;4807;48.024;11.726;2024-03-23T20:58:06;3.10;99.90
9537;DHT22;4807;48.024;11.726;2024-03-23T21:01:12;3.10;99.90
9537;DHT22;4807;48.024;11.726;2024-03-23T21:04:22;3.10;99.90
9537;DHT22;4807;48.024;11.726;2024-03-23T21:07:29;3.10;99.90
9537;DHT22;4807;48.024;11.726;2024-03-23T21:10:36;3.20;99.90
9537;DHT22;4807;48.024;11.726;2024-03-23T21:13:43;3.10;99.90
9537;DHT22;4807;48.024;11.726;2024-03-23T21:16:53;3.20;99.90
9537;DHT22;4807;48.024;11.726;2024-03-23T21:20:02;3.30;99.90
9537;DHT22;4807;48.024;11.726;2024-03-23T21:23:10;3.30;99.90
9537;DHT22;4807;48.024;11.726;2024-03-23T21:26:17;3.40;99.90
9537;DHT22;4807;48.024;11.726;2024-03-23T21:29:26;3.40;99.90
9537;DHT22;4807;48.024;11.726;2024-03-23T21:32:34;3.40;99.90
9537;DHT22;4807;48.024;11.726;2024-03-23T21:35:42;3.30;99.90
9537;DHT22;4807;48.024;11.726;2024-03-23T21:38:50;3.30;99.90
9537;DHT22;4807;48.024;11.726;2024-03-23T21:41:56;3.30;99.90
9537;DHT22;4807;48.024;11.726;2024-03-23T21:45:05;3.20;99.90
9537;DHT22;4807;48.024;11.726;2024-03-23T21:48:13;3.00;99.90
9537;DHT22;4807;48.024;11.726;2024-03-23T21:51:20;3.00;99.90
9537;DHT22;4807;48.024;11.726;2024-03-23T21:54:29;2.80;99.90
9537;DHT22;4807;48.024;11.726;2024-03-23T21:57:36;2.70;99.90
9537;DHT22;4807;48.024;11.726;2024-03-23T22:00:46;2.70;99.90
9537;DHT22;4807;48.024;11.726;2024-03-23T22:03:53;2.60;99.90
9537;DHT22;4807;48.024;11.726;2024-03-23T22:07:01;2.40;99.90
9537;DHT22;4807;48.024;11.726;2024-03-23T22:10:08;2.60;99.90
9537;DHT22;4807;48.024;11.726;2024-03-23T22:13:15;2.60;99.90
9537;DHT22;4807;48.024;11.726;2024-03-23T22:16:22;2.60;99.90
9537;DHT22;4807;48.024;11.726;2024-03-23T22:19:30;2.50;99.90
9537;DHT22;4807;48.024;11.726;2024-03-23T22:22:39;2.50;99.90
9537;DHT22;4807;48.024;11.726;2024-03-23T22:25:47;2.40;99.90
9537;DHT22;4807;48.024;11.726;2024-03-23T22:28:55;2.40;99.90
9537;DHT22;4807;48.024;11.726;2024-03-23T22:32:02;2.40;99.90
9537;DHT22;4807;48.024;11.726;2024-03-23T22:35:11;2.40;99.90
9537;DHT22;4807;48.024;11.726;2024-03-23T22:38:20;2.20;99.90
9537;DHT22;4807;48.024;11.726;2024-03-23T22:41:27;2.10;99.90
9537;DHT22;4807;48.024;11.726;2024-03-23T22:44:34;2.20;99.90
9537;DHT22;4807;48.024;11.726;2024-03-23T22:47:41;2.10;99.90
9537;DHT22;4807;48.024;11.726;2024-03-23T22:50:49;2.00;99.90
9537;DHT22;4807;48.024;11.726;2024-03-23T22:53:57;2.10;99.90
9537;DHT22;4807;48.024;11.726;2024-03-23T22:57:04;1.90;99.90
9537;DHT22;4807;48.024;11.726;2024-03-23T23:00:12;2.10;99.90
9537;DHT22;4807;48.024;11.726;2024-03-23T23:03:21;1.90;99.90
9537;DHT22;4807;48.024;11.726;2024-03-23T23:06:29;2.00;99.90
9537;DHT22;4807;48.024;11.726;2024-03-23T23:09:37;1.90;99.90
9537;DHT22;4807;48.024;11.726;2024-03-23T23:12:45;1.80;99.90
9537;DHT22;4807;48.024;11.726;2024-03-23T23:15:53;1.70;99.90
9537;DHT22;4807;48.024;11.726;2024-03-23T23:19:02;1.80;99.90
9537;DHT22;4807;48.024;11.726;2024-03-23T23:22:11;1.80;99.90
9537;DHT22;4807;48.024;11.726;2024-03-23T23:25:19;1.60;99.90
9537;DHT22;4807;48.024;11.726;2024-03-23T23:28:27;1.70;99.90
9537;DHT22;4807;48.024;11.726;2024-03-23T23:31:34;1.70;99.90
9537;DHT22;4807;48.024;11.726;2024-03-23T23:34:41;1.80;99.90
9537;DHT22;4807;48.024;11.726;2024-03-23T23:37:50;1.90;99.90
9537;DHT22;4807;48.024;11.726;2024-03-23T23:40:59;1.80;99.90
9537;DHT22;4807;48.024;11.726;2024-03-23T23:44:06;1.70;99.90
9537;DHT22;4807;48.024;11.726;2024-03-23T23:47:14;1.80;99.90
9537;DHT22;4807;48.024;11.726;2024-03-23T23:50:20;1.90;99.90
9537;DHT22;4807;48.024;11.726;2024-03-23T23:53:27;1.70;99.90
9537;DHT22;4807;48.024;11.726;2024-03-23T23:56:35;1.90;99.90
9537;DHT22;4807;48.024;11.726;2024-03-23T23:59:42;1.80;99.90
